• Join FlightAware (Why Join?)
  • Login
  • US Flag 
09:00AM EST


 

Airport Tracker/Info


-or-


 

Live Flight TrackerFlight Track Log ✈ N487VC ✈ 21-Apr-2013 ✈ KHPN - KBED

Flight Track Log - Related Links

Times and Time Zones

All times are in EDT time to prevent confusion due to time zone crossing. See the N487VC flight status page for this flight to view local times or setup timezone preferences in your user account.

Time Position Orientation Groundspeed Altitude Reporting Facility
EDT Latitude Longitude Course Direction KTS MPH feet Rate Location/Type
06:42AM 41.0833 -73.7333 56° Northeast 147 169 2,200  Level New York TRACON
06:43AM 41.1000 -73.7667 304° West 156 180 4,200 1,740 Climbing New York TRACON
06:44AM 41.1333 -73.7333 37° Northeast 177 204 5,700 1,620 Climbing New York TRACON
06:45AM 41.1500 -73.6667 72° East 190 219 7,500 1,560 Climbing New York TRACON
06:46AM 41.1833 -73.6000 56° Northeast 209 241 8,900 720 Climbing New York TRACON
06:47AM 41.2463 -73.3741 56° Northeast  Level FlightAware Approximate
06:47AM 41.2167 -73.5333 56° Northeast 254 292 9,000  Level New York TRACON
06:48AM 41.2500 -73.4500 62° Northeast 258 297 9,000  Level New York TRACON
06:49AM 41.2833 -73.3667 62° Northeast 262 302 9,000  Level New York TRACON
06:49AM 41.3069 -73.3189 57° Northeast 261 300 9,000  Level Boston Center
06:50AM 41.3344 -73.2583 59° Northeast 260 299 9,000  Level Boston Center
06:51AM 41.3728 -73.1703 60° Northeast 262 302 9,000  Level Boston Center
06:52AM 41.4231 -73.1044 44° Northeast 257 296 9,000  Level Boston Center
06:53AM 41.4714 -73.0358 47° Northeast 257 296 9,000  Level Boston Center
06:54AM 41.5217 -72.9642 47° Northeast 259 298 9,000  Level Boston Center
06:55AM 41.5700 -72.8950 47° Northeast 259 298 9,000  Level Boston Center
06:56AM 41.6181 -72.8289 46° Northeast 259 298 9,000  Level Boston Center
06:57AM 41.6706 -72.7542 47° Northeast 259 298 9,000  Level Boston Center
06:58AM 41.7167 -72.6819 49° Northeast 259 298 9,000  Level Boston Center
06:59AM 41.7647 -72.6128 47° Northeast 257 296 9,000  Level Boston Center
07:00AM 41.8147 -72.5458 45° Northeast 258 297 9,000  Level Boston Center
07:01AM 41.8647 -72.4736 47° Northeast 258 297 9,000  Level Boston Center
07:02AM 41.9169 -72.3983 47° Northeast 260 299 9,000  Level Boston Center
07:03AM 41.9647 -72.3256 49° Northeast 260 299 9,000  Level Boston Center
07:04AM 42.0147 -72.2556 46° Northeast 257 296 9,000  Level Boston Center
07:05AM 42.0667 -72.1744 49° Northeast 256 295 9,000  Level Boston Center
07:06AM 42.1103 -72.1097 48° Northeast 256 295 9,000 -420 Level Boston Center
07:07AM 42.1622 -72.0425 44° Northeast 261 300 8,200 -1,260 Descending Boston Center
07:08AM 42.2139 -71.9636 48° Northeast 274 315 6,500 -1,500 Descending Boston Center
07:09AM 42.2614 -71.8903 49° Northeast 260 299 5,200 -480 Descending Boston Center
07:11AM 42.3667 -71.7333 48° Northeast 231 266 5,000 -300 Descending KA90
07:12AM 42.4000 -71.6500 62° Northeast 250 288 4,200 -540 Descending KA90
07:13AM 42.4333 -71.5833 56° Northeast 239 275 4,000 -660 Descending KA90
07:14AM 42.4667 -71.5167 56° Northeast 240 276 3,000 -1,020 Descending KA90
07:15AM 42.4833 -71.4333 75° East 216 249 2,000 -900 Descending KA90
07:16AM 42.4833 -71.3667 90° East 175 201 1,200 -840 Descending KA90